Time;durP1;ratioP1;P1;durP2;ratioP2;P2;SDS_P1;SDS_P2;PMS_P1;PMS_P2;Temp;Humidity;BMP_temperature;BMP_pressure;BME280_temperature;BME280_humidity;BME280_pressure;Samples;Min_cycle;Max_cycle;Signal;HPM_P1;HPM_P2
2024/01/26 00:01:40;;;;;;;;;8.00;6.00;;;;;4.83;84.83;100056.78;6305391;20;2752402;-44
2024/01/26 00:04:08;;;;;;;;;7.00;7.00;;;;;4.69;85.57;100072.34;6273734;20;2748274;-45
2024/01/26 00:06:37;;;;;;;;;7.25;7.00;;;;;4.83;85.23;100064.78;6294862;20;1811240;-48
2024/01/26 00:09:11;;;;;;;;;9.50;7.00;;;;;4.61;86.80;100070.78;6327786;20;1816128;-45
2024/01/26 00:11:41;;;;;;;;;9.00;6.00;;;;;4.79;86.96;100068.44;6322509;20;1819110;-46
2024/01/26 00:14:09;;;;;;;;;15.00;5.50;;;;;4.55;87.35;100078.91;6303278;20;2787858;-47
2024/01/26 00:16:39;;;;;;;;;10.00;6.00;;;;;4.56;87.61;100071.84;6290174;20;1819144;-44
2024/01/26 00:19:09;;;;;;;;;7.33;6.17;;;;;4.60;87.56;100074.31;6348713;20;1810722;-43
2024/01/26 00:21:38;;;;;;;;;13.00;10.00;;;;;4.37;88.84;100077.72;6274997;20;2767992;-45
2024/01/26 00:24:06;;;;;;;;;8.00;5.00;;;;;4.61;87.80;100092.03;6273477;20;2747160;-44
2024/01/26 00:26:35;;;;;;;;;6.50;6.50;;;;;4.33;89.12;100093.78;6292461;20;1819157;-45
2024/01/26 00:29:03;;;;;;;;;9.50;8.00;;;;;4.46;88.74;100087.19;6308745;20;2744029;-44
2024/01/26 00:31:30;;;;;;;;;12.00;6.00;;;;;4.57;88.00;100094.84;6304601;20;2769184;-48
2024/01/26 00:33:59;;;;;;;;;7.50;6.00;;;;;4.58;87.87;100102.78;6289688;20;1821259;-44
2024/01/26 00:36:27;;;;;;;;;6.00;6.00;;;;;4.48;87.94;100096.00;6308100;20;2750295;-45
2024/01/26 00:38:55;;;;;;;;;8.00;5.50;;;;;4.41;88.52;100099.75;6306488;20;2755496;-44
2024/01/26 00:41:23;;;;;;;;;10.00;6.00;;;;;4.42;89.00;100095.28;6277652;20;2750269;-46
2024/01/26 00:43:51;;;;;;;;;7.50;7.00;;;;;4.53;88.69;100093.16;6312050;20;2748320;-47
2024/01/26 00:46:20;;;;;;;;;10.00;3.00;;;;;4.47;88.71;100086.25;6332510;20;1825488;-45
2024/01/26 00:48:48;;;;;;;;;10.25;7.00;;;;;4.40;89.23;100084.72;6294855;20;1820137;-45
2024/01/26 00:51:17;;;;;;;;;7.75;6.25;;;;;4.27;89.41;100075.38;6329868;20;1823364;-47
2024/01/26 00:53:45;;;;;;;;;7.00;6.00;;;;;4.43;88.92;100081.97;6313544;20;2748310;-45
2024/01/26 00:56:14;;;;;;;;;12.00;7.00;;;;;4.45;88.73;100082.81;6311894;20;2765882;-46
2024/01/26 00:58:41;;;;;;;;;10.00;7.50;;;;;4.36;89.27;100080.41;6279218;20;2751333;-45
2024/01/26 01:01:09;;;;;;;;;6.00;6.00;;;;;4.32;89.12;100078.78;6312504;20;2740012;-47
2024/01/26 01:03:38;;;;;;;;;7.75;6.50;;;;;4.32;89.49;100084.94;6328816;20;1819085;-45
2024/01/26 01:06:06;;;;;;;;;7.75;5.75;;;;;4.28;89.59;100093.06;6328643;20;1821294;-45
2024/01/26 01:08:37;;;;;;;;;8.17;6.50;;;;;4.44;88.59;100089.00;6352534;20;1805605;-47
2024/01/26 01:11:06;;;;;;;;;8.00;7.00;;;;;4.44;88.95;100093.47;6301328;20;1815983;-45
2024/01/26 01:13:35;;;;;;;;;6.00;6.00;;;;;4.48;88.22;100090.69;6326943;20;1820248;-46
2024/01/26 01:16:03;;;;;;;;;7.00;7.00;;;;;4.35;89.33;100090.16;6331823;20;1818945;-47
2024/01/26 01:18:31;;;;;;;;;12.00;6.00;;;;;4.52;88.42;100100.28;6308229;20;2773334;-44
2024/01/26 01:21:00;;;;;;;;;10.00;7.00;;;;;4.38;88.33;100099.84;6294495;20;1814978;-46
2024/01/26 01:23:28;;;;;;;;;6.50;6.00;;;;;4.45;87.73;100093.44;6329368;20;1819101;-44
2024/01/26 01:25:57;;;;;;;;;5.00;5.00;;;;;4.35;88.72;100086.66;6331580;20;1823277;-45
2024/01/26 01:28:26;;;;;;;;;5.00;5.00;;;;;4.50;87.62;100091.50;6326570;20;1821284;-43
2024/01/26 01:30:54;;;;;;;;;9.00;6.67;;;;;4.38;87.85;100086.56;6307791;20;2752422;-44
2024/01/26 01:33:22;;;;;;;;;10.00;5.00;;;;;4.42;87.48;100085.53;6310277;20;2764708;-46
2024/01/26 01:35:51;;;;;;;;;6.00;6.00;;;;;4.47;87.87;100086.25;6280310;20;2748235;-46
2024/01/26 01:38:19;;;;;;;;;8.50;6.00;;;;;4.39;87.57;100085.63;6308364;20;2754450;-44
2024/01/26 01:40:46;;;;;;;;;10.00;6.00;;;;;4.44;87.65;100088.16;6279585;20;2760749;-44
2024/01/26 01:43:19;;;;;;;;;14.25;7.25;;;;;4.42;87.20;100085.53;6297996;20;1829627;-45
2024/01/26 01:45:48;;;;;;;;;6.75;5.50;;;;;4.29;88.16;100082.38;6328636;20;1819083;-46
2024/01/26 01:48:16;;;;;;;;;5.67;3.67;;;;;4.37;87.59;100079.47;6311738;20;3461744;-45
2024/01/26 01:50:44;;;;;;;;;7.50;6.00;;;;;4.37;87.47;100082.13;6281654;20;2753432;-47
2024/01/26 01:53:15;;;;;;;;;5.50;3.00;;;;;4.27;88.22;100080.69;6325534;20;1825412;-46
2024/01/26 01:55:45;;;;;;;;;4.00;4.00;;;;;4.19;88.91;100080.91;6325750;20;1822215;-45
2024/01/26 01:58:14;;;;;;;;;10.50;7.00;;;;;4.04;90.62;100073.38;6307565;20;2765944;-46
2024/01/26 02:00:42;;;;;;;;;9.25;5.50;;;;;4.00;90.47;100077.88;6295113;20;1826437;-45
2024/01/26 02:03:10;;;;;;;;;8.00;6.00;;;;;4.17;90.06;100080.94;6312777;20;2752542;-45
2024/01/26 02:05:39;;;;;;;;;6.00;5.00;;;;;4.21;89.17;100087.03;6327195;20;1823278;-47
2024/01/26 02:08:07;;;;;;;;;8.00;7.50;;;;;3.89;89.48;100083.50;6312043;20;2741974;-48
2024/01/26 02:10:35;;;;;;;;;6.50;5.00;;;;;4.09;89.03;100088.25;6310957;20;2744057;-45
2024/01/26 02:13:03;;;;;;;;;8.67;4.33;;;;;4.12;89.22;100093.50;6307794;20;3482622;-44
2024/01/26 02:15:32;;;;;;;;;9.00;5.00;;;;;4.00;89.57;100090.31;6297802;20;1827536;-44
2024/01/26 02:18:00;;;;;;;;;6.25;6.25;;;;;4.02;89.93;100096.44;6326727;20;1816043;-45
2024/01/26 02:20:29;;;;;;;;;6.00;5.00;;;;;4.06;89.69;100103.44;6328600;20;1823094;-44
2024/01/26 02:23:22;;;;;;;;;5.50;2.75;;;;;3.94;89.95;100104.63;6330203;20;1825356;-44
2024/01/26 02:25:51;;;;;;;;;5.75;5.00;;;;;4.11;88.43;100105.03;6328269;20;1819165;-43
2024/01/26 02:28:20;;;;;;;;;4.50;3.00;;;;;4.08;88.96;100102.47;6328503;20;1822260;-44
2024/01/26 02:30:49;;;;;;;;;6.00;6.00;;;;;3.87;89.75;100098.63;6329185;20;1820181;-45
2024/01/26 02:33:17;;;;;;;;;9.50;8.00;;;;;3.99;89.59;100094.75;6309962;20;2750287;-45
2024/01/26 02:35:45;;;;;;;;;6.00;6.00;;;;;4.09;89.15;100098.03;6293947;20;1823238;-43
2024/01/26 02:38:13;;;;;;;;;11.50;5.00;;;;;3.97;89.08;100094.78;6309967;20;2764957;-43
2024/01/26 02:40:42;;;;;;;;;6.50;5.75;;;;;4.01;89.09;100094.72;6294108;20;1823305;-44
2024/01/26 02:43:10;;;;;;;;;6.00;3.50;;;;;4.00;89.10;100095.63;6324970;20;1815101;-43
2024/01/26 02:45:42;;;;;;;;;6.00;6.00;;;;;3.93;90.00;100097.59;6325186;20;1822217;-45
2024/01/26 02:48:11;;;;;;;;;7.75;6.00;;;;;3.92;90.34;100095.81;6329175;20;1823328;-44
2024/01/26 02:50:39;;;;;;;;;6.00;5.00;;;;;3.85;90.11;100100.47;6310340;20;2752435;-43
2024/01/26 02:53:07;;;;;;;;;7.00;6.00;;;;;3.74;90.69;100092.78;6308443;20;2748194;-52
2024/01/26 02:55:36;;;;;;;;;9.50;5.50;;;;;3.84;90.88;100082.75;6292596;20;1819096;-50
2024/01/26 02:58:04;;;;;;;;;6.50;5.00;;;;;3.86;90.34;100078.28;6311311;20;2749280;-51
2024/01/26 03:00:31;;;;;;;;;10.00;6.50;;;;;3.74;90.33;100081.28;6273085;20;2768088;-52
2024/01/26 03:03:00;;;;;;;;;5.75;5.75;;;;;3.80;90.05;100085.56;6296948;20;1819149;-51
2024/01/26 03:05:28;;;;;;;;;3.00;3.00;;;;;3.87;89.41;100093.31;6309819;20;2735856;-54
2024/01/26 03:07:57;;;;;;;;;11.25;5.00;;;;;3.94;88.50;100099.31;6327467;20;1814980;-51
2024/01/26 03:10:25;;;;;;;;;5.50;3.00;;;;;3.95;88.43;100111.72;6326842;20;1811957;-50
2024/01/26 03:12:53;;;;;;;;;5.00;3.67;;;;;3.99;87.49;100113.34;6311394;20;3461754;-53
2024/01/26 03:15:22;;;;;;;;;6.00;5.00;;;;;4.03;86.75;100108.81;6327379;20;1814982;-49
2024/01/26 03:17:51;;;;;;;;;6.25;5.00;;;;;4.04;86.26;100114.09;6327416;20;1819250;-51
2024/01/26 03:20:19;;;;;;;;;5.67;3.00;;;;;4.11;85.82;100104.19;6307832;20;3457577;-53
2024/01/26 03:22:47;;;;;;;;;5.75;3.00;;;;;4.12;85.35;100113.88;6326863;20;1816836;-51
2024/01/26 03:25:16;;;;;;;;;7.25;3.00;;;;;4.18;85.41;100117.22;6325547;20;1819589;-53
2024/01/26 03:27:44;;;;;;;;;6.00;5.00;;;;;4.22;85.17;100111.84;6326805;20;1814697;-53
2024/01/26 03:30:12;;;;;;;;;5.00;5.00;;;;;4.13;84.69;100116.50;6309452;20;3455507;-54
2024/01/26 03:32:41;;;;;;;;;3.00;3.00;;;;;4.22;84.36;100110.06;6325810;20;1812872;-54
2024/01/26 03:35:10;;;;;;;;;9.50;6.00;;;;;4.04;85.21;100115.88;6325042;20;1824370;-51
2024/01/26 03:37:39;;;;;;;;;7.00;5.00;;;;;4.14;85.12;100112.91;6324329;20;1822259;-54
2024/01/26 03:40:08;;;;;;;;;5.33;5.33;;;;;4.12;83.95;100117.41;6330275;20;1817562;-53
2024/01/26 03:42:37;;;;;;;;;4.67;2.33;;;;;4.12;84.43;100124.50;6308961;20;3463842;-50
2024/01/26 03:45:07;;;;;;;;;8.75;5.75;;;;;4.29;83.97;100126.69;6295487;20;1816978;-49
2024/01/26 03:47:36;;;;;;;;;6.00;5.00;;;;;4.20;84.07;100133.13;6325911;20;1821167;-48
2024/01/26 03:50:06;;;;;;;;;6.00;3.00;;;;;4.05;85.17;100138.88;6309816;20;2746239;-51
2024/01/26 03:52:34;;;;;;;;;5.00;2.25;;;;;4.06;84.96;100140.63;6327111;20;1814964;-52
2024/01/26 03:55:06;;;;;;;;;6.00;4.00;;;;;4.02;85.89;100144.28;6309077;20;2747268;-53
2024/01/26 03:57:35;;;;;;;;;8.50;5.00;;;;;3.94;86.14;100147.13;6294764;20;1823328;-52
2024/01/26 04:00:10;;;;;;;;;10.50;7.00;;;;;3.97;86.44;100147.06;6304559;20;2755529;-50
2024/01/26 04:02:39;;;;;;;;;5.75;5.25;;;;;3.94;86.99;100149.78;6292389;20;1819146;-49
2024/01/26 04:05:09;;;;;;;;;6.33;6.33;;;;;3.87;86.73;100137.59;6345621;20;1799306;-51
2024/01/26 04:07:37;;;;;;;;;5.67;3.00;;;;;3.94;87.34;100145.34;6279360;20;3453486;-53
2024/01/26 04:10:06;;;;;;;;;10.75;7.00;;;;;3.92;87.78;100148.97;6325634;20;1821216;-49
2024/01/26 04:12:35;;;;;;;;;8.25;5.50;;;;;3.90;88.13;100156.13;6324171;20;1823345;-51
2024/01/26 04:15:03;;;;;;;;;10.00;6.00;;;;;3.84;88.06;100150.94;6304315;20;2767058;-52
2024/01/26 04:17:32;;;;;;;;;8.00;6.00;;;;;3.71;88.26;100140.66;6291912;20;1819125;-51
2024/01/26 04:20:03;;;;;;;;;4.33;4.33;;;;;3.77;89.11;100136.13;6348158;20;1803472;-51
2024/01/26 04:22:31;;;;;;;;;11.00;6.00;;;;;3.82;89.14;100142.16;6275721;20;2768112;-54
2024/01/26 04:24:59;;;;;;;;;10.00;6.50;;;;;3.78;89.24;100140.50;6270195;20;2760795;-52
2024/01/26 04:27:27;;;;;;;;;11.00;6.00;;;;;3.84;89.56;100141.19;6307658;20;2758762;-49
2024/01/26 04:29:54;;;;;;;;;10.00;7.00;;;;;3.69;89.78;100131.88;6306406;20;2752413;-49
2024/01/26 04:32:23;;;;;;;;;7.50;5.50;;;;;3.82;88.78;100143.03;6324534;20;1822701;-52
2024/01/26 04:34:52;;;;;;;;;5.00;5.00;;;;;3.78;89.24;100143.16;6321702;20;1819092;-52
2024/01/26 04:37:21;;;;;;;;;5.25;5.25;;;;;3.94;88.85;100147.13;6324646;20;1820150;-49
2024/01/26 04:39:50;;;;;;;;;9.00;6.00;;;;;3.81;88.44;100145.72;6306501;20;2755492;-52
2024/01/26 04:42:19;;;;;;;;;8.75;5.25;;;;;3.85;88.43;100148.25;6294642;20;1824395;-51
2024/01/26 04:44:50;;;;;;;;;6.00;5.00;;;;;3.83;87.90;100149.22;6305477;20;2756527;-50
2024/01/26 04:47:20;;;;;;;;;6.60;6.60;;;;;3.72;88.80;100146.84;6301498;20;2748238;-53
2024/01/26 04:49:49;;;;;;;;;5.25;5.25;;;;;3.73;88.88;100144.13;6322006;20;1817082;-48
2024/01/26 04:52:17;;;;;;;;;4.50;4.50;;;;;3.63;89.73;100141.75;6322421;20;1823850;-51
2024/01/26 04:54:48;;;;;;;;;11.80;9.00;;;;;3.64;89.64;100152.34;6329277;20;2770167;-52
2024/01/26 04:57:16;;;;;;;;;11.50;8.75;;;;;3.78;89.79;100157.28;6289881;20;1851480;-53
2024/01/26 04:59:45;;;;;;;;;7.00;7.00;;;;;3.90;88.27;100150.81;6324487;20;1816328;-52
2024/01/26 05:02:14;;;;;;;;;8.50;6.00;;;;;3.77;88.63;100144.06;6324130;20;1823273;-51
2024/01/26 05:04:42;;;;;;;;;7.00;3.00;;;;;3.80;87.37;100147.50;6305704;20;2742482;-53
2024/01/26 05:07:10;;;;;;;;;5.75;4.50;;;;;3.80;87.58;100146.66;6323862;20;1817116;-50
2024/01/26 05:09:39;;;;;;;;;15.00;11.00;;;;;4.00;87.16;100162.03;6307028;20;2779470;-50
2024/01/26 05:12:08;;;;;;;;;8.25;7.50;;;;;3.84;87.49;100164.22;6292641;20;1816675;-50
2024/01/26 05:14:36;;;;;;;;;5.75;5.75;;;;;3.92;87.83;100170.22;6322936;20;1813921;-53
2024/01/26 05:17:04;;;;;;;;;11.00;6.50;;;;;3.93;86.89;100170.19;6306757;20;2765906;-50
2024/01/26 05:19:32;;;;;;;;;12.00;9.50;;;;;3.94;86.62;100168.38;6275826;20;2766005;-51
2024/01/26 05:22:00;;;;;;;;;8.50;7.00;;;;;3.91;86.63;100169.34;6275638;20;2748319;-50
2024/01/26 05:24:30;;;;;;;;;9.50;8.50;;;;;3.96;86.34;100171.88;6334613;20;2741970;-54
2024/01/26 05:26:58;;;;;;;;;6.25;5.50;;;;;4.13;85.61;100185.59;6319804;20;1821258;-53
2024/01/26 05:29:27;;;;;;;;;11.00;11.00;;;;;4.12;85.49;100183.84;6321033;20;1820159;-52
2024/01/26 05:31:55;;;;;;;;;5.50;5.50;;;;;4.14;84.98;100183.81;6313077;20;2751373;-51
2024/01/26 05:34:23;;;;;;;;;4.50;4.50;;;;;4.15;85.71;100183.75;6323525;20;1812792;-51
2024/01/26 05:36:52;;;;;;;;;5.00;3.00;;;;;4.15;85.65;100189.06;6311698;20;3436753;-50
2024/01/26 05:39:20;;;;;;;;;10.50;6.75;;;;;4.09;85.90;100191.91;6327242;20;1822726;-50
2024/01/26 05:41:48;;;;;;;;;10.00;9.50;;;;;4.18;85.42;100181.00;6309659;20;2770165;-52
2024/01/26 05:44:16;;;;;;;;;8.00;6.00;;;;;4.13;85.10;100169.66;6277741;20;2749278;-48
2024/01/26 05:46:44;;;;;;;;;4.00;3.00;;;;;4.13;85.47;100180.28;6328124;20;1821257;-52
2024/01/26 05:49:13;;;;;;;;;5.75;5.00;;;;;4.02;85.86;100170.84;6327719;20;1825363;-52
2024/01/26 05:51:41;;;;;;;;;10.00;6.00;;;;;4.11;85.68;100187.41;6309340;20;2757989;-52
2024/01/26 05:54:10;;;;;;;;;8.00;5.00;;;;;4.08;84.97;100190.16;6294657;20;1808760;-52
2024/01/26 05:56:42;;;;;;;;;8.50;5.00;;;;;4.08;85.43;100183.94;6329795;20;1813589;-53
2024/01/26 05:59:10;;;;;;;;;8.75;2.75;;;;;4.08;85.54;100203.44;6328106;20;1813784;-49
2024/01/26 06:01:38;;;;;;;;;10.00;6.00;;;;;3.88;86.98;100205.75;6304303;20;2754465;-50
2024/01/26 06:04:07;;;;;;;;;10.00;10.00;;;;;3.96;86.74;100198.44;6327696;20;1813890;-52
2024/01/26 06:06:35;;;;;;;;;7.75;6.00;;;;;3.95;86.70;100202.03;6327814;20;1818083;-53
2024/01/26 06:09:04;;;;;;;;;10.00;10.00;;;;;4.00;87.01;100204.53;6328396;20;1823072;-52
2024/01/26 06:11:33;;;;;;;;;5.25;5.00;;;;;3.98;86.54;100212.56;6326920;20;1825404;-51
2024/01/26 06:14:01;;;;;;;;;9.50;6.00;;;;;4.09;86.38;100221.13;6310446;20;2755491;-50
2024/01/26 06:16:28;;;;;;;;;7.50;5.00;;;;;4.05;86.63;100218.56;6310618;20;2750279;-51
2024/01/26 06:18:57;;;;;;;;;21.33;19.67;;;;;3.90;86.41;100219.88;6308568;20;3561840;-48
2024/01/26 06:21:30;;;;;;;;;5.50;5.50;;;;;3.92;86.57;100234.88;6295983;20;1821044;-50
2024/01/26 06:23:59;;;;;;;;;10.00;6.25;;;;;4.09;86.01;100221.13;6326353;20;1821214;-49
2024/01/26 06:26:28;;;;;;;;;7.50;5.75;;;;;3.85;87.64;100219.13;6327005;20;1812820;-49
2024/01/26 06:28:56;;;;;;;;;18.50;10.00;;;;;3.85;87.24;100211.16;6307965;20;2803437;-51
2024/01/26 06:31:27;;;;;;;;;10.00;6.50;;;;;3.93;87.49;100206.50;6282240;20;2751392;-49
2024/01/26 06:33:55;;;;;;;;;3.67;3.67;;;;;3.92;87.35;100207.41;6309845;20;3459642;-50
2024/01/26 06:36:24;;;;;;;;;8.00;8.00;;;;;3.95;86.94;100223.28;6294960;20;1809183;-48
2024/01/26 06:38:52;;;;;;;;;13.50;8.50;;;;;4.03;86.94;100223.94;6312807;20;2754476;-49
2024/01/26 06:41:20;;;;;;;;;7.50;6.00;;;;;4.05;86.70;100243.34;6309846;20;2750868;-51
2024/01/26 06:43:53;;;;;;;;;10.17;7.17;;;;;4.02;86.70;100246.09;6349366;20;1804171;-50
2024/01/26 06:46:24;;;;;;;;;6.00;6.00;;;;;4.00;86.35;100247.91;6283087;20;2699357;-52
2024/01/26 06:48:52;;;;;;;;;9.25;9.25;;;;;4.17;85.83;100240.41;6327764;20;1816129;-50
2024/01/26 06:51:21;;;;;;;;;6.00;5.00;;;;;4.23;85.46;100236.69;6328338;20;1820660;-54
2024/01/26 06:53:50;;;;;;;;;7.00;7.00;;;;;4.61;83.38;100243.63;6327279;20;1816062;-50
2024/01/26 06:56:18;;;;;;;;;6.50;6.00;;;;;4.77;81.46;100256.50;6310836;20;2748215;-52
2024/01/26 06:58:46;;;;;;;;;9.00;7.25;;;;;5.11;80.75;100271.44;6324415;20;1813050;-52
2024/01/26 07:01:15;;;;;;;;;8.00;6.00;;;;;5.17;78.47;100271.28;6322265;20;1817031;-50
2024/01/26 07:03:44;;;;;;;;;13.00;8.25;;;;;5.59;77.62;100281.53;6327971;20;1816054;-49
2024/01/26 07:06:12;;;;;;;;;12.50;7.00;;;;;8.22;65.69;100288.81;6307075;20;2760794;-50
2024/01/26 07:08:41;;;;;;;;;6.00;6.00;;;;;9.70;58.18;100289.25;6294822;20;1818127;-51
2024/01/26 07:11:12;;;;;;;;;7.00;7.00;;;;;10.72;53.84;100290.44;6309952;20;2741956;-52
2024/01/26 07:13:43;;;;;;;;;7.00;5.20;;;;;10.93;53.43;100293.81;6315595;20;2479482;-54
2024/01/26 07:16:11;;;;;;;;;6.00;5.00;;;;;12.30;48.90;100295.13;6309622;20;2742998;-55
2024/01/26 07:18:39;;;;;;;;;9.00;7.00;;;;;12.32;48.03;100292.31;6278691;20;2742993;-54
2024/01/26 07:21:10;;;;;;;;;9.00;6.00;;;;;11.63;49.00;100284.53;6299175;20;1801396;-56
2024/01/26 07:23:41;;;;;;;;;4.50;4.50;;;;;9.73;53.95;100283.75;6311375;20;2748223;-54
2024/01/26 07:26:09;;;;;;;;;10.00;6.00;;;;;11.46;50.26;100284.66;6276279;20;2769089;-52
2024/01/26 07:28:37;;;;;;;;;8.00;4.00;;;;;9.73;52.88;100291.78;6279773;20;2756588;-54
2024/01/26 07:31:04;;;;;;;;;6.50;5.00;;;;;11.18;50.35;100291.53;6280897;20;2729433;-56
2024/01/26 07:33:34;;;;;;;;;13.00;11.00;;;;;9.52;52.89;100298.19;6299994;20;2794073;-52
2024/01/26 07:36:03;;;;;;;;;21.00;19.50;;;;;6.25;65.57;100284.75;6276873;20;2500275;-54
2024/01/26 07:38:30;;;;;;;;;28.00;21.50;;;;;6.00;70.09;100296.22;6276592;20;2500364;-51
2024/01/26 07:41:00;;;;;;;;;14.60;10.80;;;;;5.76;72.35;100292.50;6302564;20;2788931;-50
2024/01/26 07:43:29;;;;;;;;;18.00;15.00;;;;;5.82;72.26;100292.34;6276459;20;3540905;-51
2024/01/26 07:45:57;;;;;;;;;18.00;14.00;;;;;5.85;73.00;100296.69;6303832;20;2809688;-50
2024/01/26 07:48:26;;;;;;;;;20.67;16.00;;;;;5.89;72.76;100301.84;6306272;20;3544077;-52
2024/01/26 07:50:54;;;;;;;;;13.50;11.00;;;;;6.10;71.74;100300.31;6303678;20;2492112;-53
2024/01/26 07:53:22;;;;;;;;;12.50;8.00;;;;;5.97;72.82;100301.63;6275056;20;2769023;-53
2024/01/26 07:55:51;;;;;;;;;14.00;14.00;;;;;6.30;71.50;100304.13;6274874;20;2788915;-53
2024/01/26 07:58:20;;;;;;;;;12.00;11.00;;;;;6.46;70.55;100304.47;6326121;20;1814946;-51
2024/01/26 08:00:48;;;;;;;;;8.50;5.00;;;;;6.18;70.78;100308.06;6307146;20;2743098;-49
2024/01/26 08:03:16;;;;;;;;;10.00;7.00;;;;;6.32;71.39;100308.47;6307372;20;2762825;-53
2024/01/26 08:05:47;;;;;;;;;9.83;6.83;;;;;6.40;70.60;100304.66;6318600;20;1804662;-54
2024/01/26 08:08:15;;;;;;;;;6.33;6.33;;;;;6.33;70.33;100310.22;6301350;20;1818890;-53
2024/01/26 08:10:45;;;;;;;;;10.00;8.80;;;;;6.42;69.99;100313.47;6328753;20;2746142;-50
2024/01/26 08:13:13;;;;;;;;;8.00;7.00;;;;;6.70;68.70;100319.59;6309276;20;2733702;-52
2024/01/26 08:15:42;;;;;;;;;8.00;7.00;;;;;6.60;69.86;100307.50;6278593;20;2742132;-52
2024/01/26 08:18:10;;;;;;;;;6.00;6.00;;;;;6.84;68.47;100315.56;6309062;20;2742081;-49
2024/01/26 08:20:38;;;;;;;;;6.50;5.00;;;;;6.85;68.42;100322.66;6306198;20;2734757;-51
2024/01/26 08:23:09;;;;;;;;;6.00;3.00;;;;;6.85;68.42;100325.34;6318634;20;2574286;-52
2024/01/26 08:25:38;;;;;;;;;5.25;5.25;;;;;6.94;67.68;100316.97;6295462;20;1819031;-53
2024/01/26 08:28:06;;;;;;;;;7.00;4.00;;;;;6.91;67.37;100328.63;6308537;20;2753409;-49
2024/01/26 08:30:35;;;;;;;;;9.00;3.00;;;;;7.09;66.71;100321.75;6274521;20;2771095;-50
2024/01/26 08:33:03;;;;;;;;;8.00;4.50;;;;;7.20;66.27;100326.69;6275249;20;2752394;-52
2024/01/26 08:35:32;;;;;;;;;4.00;4.00;;;;;7.12;66.78;100331.47;6275563;20;2756613;-52
2024/01/26 08:38:01;;;;;;;;;3.75;3.75;;;;;6.95;66.31;100330.28;6293624;20;1813978;-52
2024/01/26 08:40:30;;;;;;;;;3.00;3.00;;;;;7.40;64.79;100326.81;6309918;20;2751334;-51
2024/01/26 08:42:58;;;;;;;;;4.00;4.00;;;;;7.47;72.83;100327.44;6275772;20;2756610;-53
2024/01/26 08:45:26;;;;;;;;;3.00;3.00;;;;;7.52;65.66;100325.47;6278464;20;2740032;-51
2024/01/26 08:47:57;;;;;;;;;4.00;4.00;;;;;7.62;65.48;100329.53;6346918;20;2487786;-52
2024/01/26 08:50:25;;;;;;;;;4.00;3.00;;;;;7.69;65.18;100322.16;6311608;20;2743018;-54
2024/01/26 08:52:53;;;;;;;;;3.00;3.00;;;;;8.02;65.39;100327.06;6297307;20;2756554;-54
2024/01/26 08:55:21;;;;;;;;;5.00;3.75;;;;;7.96;64.41;100324.66;6291536;20;1808179;-50
2024/01/26 08:57:50;;;;;;;;;5.75;5.00;;;;;8.17;63.10;100328.25;6326124;20;1809806;-52
2024/01/26 09:00:19;;;;;;;;;7.00;6.00;;;;;8.24;63.89;100324.38;6306739;20;2734806;-56
2024/01/26 09:02:47;;;;;;;;;8.00;6.00;;;;;8.19;65.08;100329.94;6276653;20;2746169;-53
2024/01/26 09:05:15;;;;;;;;;8.00;6.00;;;;;8.27;63.30;100332.28;6284387;20;2747187;-51
2024/01/26 09:07:43;;;;;;;;;3.50;3.50;;;;;8.29;62.75;100339.31;6281991;20;2751331;-54
2024/01/26 09:10:10;;;;;;;;;4.00;4.00;;;;;8.14;61.50;100345.28;6284296;20;2756544;-52
2024/01/26 09:12:38;;;;;;;;;8.00;5.00;;;;;8.25;61.03;100350.19;6282766;20;2747160;-51
2024/01/26 09:15:07;;;;;;;;;8.00;6.50;;;;;8.48;61.13;100358.16;6270147;20;2739986;-52
2024/01/26 09:17:37;;;;;;;;;4.00;4.00;;;;;8.17;61.49;100361.22;6299295;20;1817086;-50
2024/01/26 09:20:06;;;;;;;;;3.00;3.00;;;;;8.40;60.36;100373.69;6313878;20;2746198;-52
2024/01/26 09:22:35;;;;;;;;;2.50;2.00;;;;;8.36;60.12;100377.38;6297598;20;1816035;-51
2024/01/26 09:25:04;;;;;;;;;5.25;3.00;;;;;8.42;60.12;100379.81;6331532;20;1812677;-53
2024/01/26 09:27:31;;;;;;;;;4.50;3.00;;;;;8.42;59.10;100370.91;6313486;20;2751350;-54
2024/01/26 09:30:00;;;;;;;;;5.50;3.50;;;;;8.77;60.02;100372.13;6283495;20;2748450;-54
2024/01/26 09:32:28;;;;;;;;;4.00;4.00;;;;;8.82;58.44;100363.88;6282715;20;2736818;-52
2024/01/26 09:34:56;;;;;;;;;3.00;3.00;;;;;8.63;58.69;100364.66;6313340;20;2739885;-52
2024/01/26 09:37:24;;;;;;;;;7.00;3.00;;;;;9.01;58.61;100371.03;6311875;20;2754420;-53
2024/01/26 09:39:53;;;;;;;;;6.00;3.00;;;;;8.99;57.25;100364.00;6297606;20;1809779;-53
2024/01/26 09:42:21;;;;;;;;;6.00;4.00;;;;;8.50;58.47;100358.94;6313053;20;2754495;-52
2024/01/26 09:44:48;;;;;;;;;6.00;4.00;;;;;8.83;60.70;100366.50;6280775;20;2744175;-55
2024/01/26 09:47:16;;;;;;;;;4.00;1.00;;;;;9.00;57.22;100361.28;6282764;20;2739933;-50
2024/01/26 09:49:56;;;;;;;;;4.50;3.00;;;;;8.70;57.52;100357.25;6329223;20;1811820;-52
2024/01/26 09:52:25;;;;;;;;;3.75;3.75;;;;;9.02;57.82;100359.38;6328088;20;1810823;-52
2024/01/26 09:54:56;;;;;;;;;4.00;3.00;;;;;9.01;56.86;100354.97;6320996;20;1809743;-52
2024/01/26 09:57:24;;;;;;;;;4.00;4.00;;;;;9.22;56.39;100346.91;6306748;20;2756614;-50
2024/01/26 09:59:53;;;;;;;;;4.50;4.00;;;;;9.28;57.02;100348.44;6270362;20;2749249;-53
2024/01/26 10:02:23;;;;;;;;;4.75;4.00;;;;;9.00;56.03;100339.84;6298458;20;1818589;-49
2024/01/26 10:04:51;;;;;;;;;7.00;4.00;;;;;9.20;55.84;100343.44;6309823;20;2748200;-54
2024/01/26 10:07:18;;;;;;;;;6.50;5.00;;;;;9.02;56.49;100346.00;6279375;20;2752879;-53
2024/01/26 10:09:48;;;;;;;;;6.20;6.20;;;;;8.91;56.44;100337.56;6317614;20;2744082;-52
2024/01/26 10:12:19;;;;;;;;;5.00;3.50;;;;;9.21;56.27;100335.31;6313936;20;2751363;-51
2024/01/26 10:14:49;;;;;;;;;6.50;6.00;;;;;9.29;55.90;100331.41;6276146;20;2738959;-51
2024/01/26 10:17:18;;;;;;;;;10.00;6.00;;;;;9.19;55.79;100336.34;6278940;20;2763859;-50
2024/01/26 10:19:47;;;;;;;;;12.00;8.40;;;;;8.98;55.97;100324.78;6300681;20;2762816;-50
2024/01/26 10:22:15;;;;;;;;;9.00;7.50;;;;;9.41;54.91;100337.09;6278347;20;2744079;-51
2024/01/26 10:24:44;;;;;;;;;6.00;5.00;;;;;9.32;55.32;100326.81;6283147;20;2738813;-49
2024/01/26 10:27:12;;;;;;;;;6.00;5.00;;;;;9.25;54.76;100328.03;6314882;20;2745083;-52
2024/01/26 10:29:40;;;;;;;;;5.50;5.50;;;;;9.11;55.28;100317.03;6280166;20;2752467;-54
2024/01/26 10:32:13;;;;;;;;;5.00;5.00;;;;;9.28;54.64;100317.16;6280172;20;2735717;-51
2024/01/26 10:34:43;;;;;;;;;8.00;6.50;;;;;9.81;53.62;100319.09;6309582;20;2744027;-48
2024/01/26 10:37:13;;;;;;;;;6.00;3.00;;;;;9.44;54.13;100328.03;6279093;20;2752399;-52
2024/01/26 10:39:43;;;;;;;;;9.00;8.00;;;;;9.56;55.04;100314.06;6277745;20;2743081;-52
2024/01/26 10:42:11;;;;;;;;;7.00;4.00;;;;;9.50;54.40;100318.84;6280124;20;2745122;-51
2024/01/26 10:44:39;;;;;;;;;6.50;5.50;;;;;9.62;54.38;100307.53;6278091;20;2736845;-51
2024/01/26 10:47:09;;;;;;;;;10.00;10.00;;;;;10.13;53.56;100321.16;6306150;20;2778566;-51
2024/01/26 10:49:37;;;;;;;;;8.00;8.00;;;;;9.76;54.15;100317.59;6282976;20;2746104;-51
2024/01/26 10:52:08;;;;;;;;;6.00;6.00;;;;;9.71;53.77;100319.63;6280439;20;2729460;-50
2024/01/26 10:54:37;;;;;;;;;4.00;4.00;;;;;9.85;53.00;100314.47;6310321;20;2739893;-55
2024/01/26 10:57:08;;;;;;;;;7.00;7.00;;;;;9.44;53.86;100309.28;6333329;20;2748318;-52
2024/01/26 10:59:36;;;;;;;;;7.00;6.00;;;;;9.52;54.06;100316.94;6309242;20;2732620;-54
2024/01/26 11:02:05;;;;;;;;;10.50;8.50;;;;;9.79;53.52;100312.94;6276716;20;2771132;-52
2024/01/26 11:04:34;;;;;;;;;13.00;13.00;;;;;9.74;53.19;100311.44;6301003;20;2793987;-54
2024/01/26 11:07:02;;;;;;;;;7.50;7.50;;;;;9.84;52.82;100313.59;6282260;20;2743108;-54
2024/01/26 11:09:34;;;;;;;;;7.00;6.00;;;;;9.52;53.33;100317.81;6311486;20;2748341;-53
2024/01/26 11:12:02;;;;;;;;;8.00;4.00;;;;;9.58;53.59;100316.66;6275952;20;2756561;-50
2024/01/26 11:14:32;;;;;;;;;5.00;3.00;;;;;9.94;52.58;100323.88;6277808;20;2737871;-49
2024/01/26 11:17:10;;;;;;;;;3.00;3.00;;;;;9.55;53.41;100311.44;6278986;20;2756973;-44
2024/01/26 11:19:47;;;;;;;;;6.00;4.00;;;;;9.78;53.42;100319.25;6280438;20;2747202;-44
2024/01/26 11:22:15;;;;;;;;;6.00;6.00;;;;;9.64;54.11;100322.59;6283748;20;2727369;-42